Eagle Nest, New Mexico
Current Conditions -  °F | °C
As of 7:15 AM on Thursday 29 Jan 2015 (Local Time) from KAXX Reporting Station
Clear Clear  
Wind Chill: 26°   Ceiling: Unl
Heat Index: 26°   Visibility: 10mi
Dew Point: 24°   Wind: 0mph
Humidity: 94%   Direction: NA
Pressure: 30.45"   Gusts: NA
Location:  36.55°N, 105.26°W
Report Text: KAXX 291415Z AUTO 00000KT 10SM CLR M03/M04 A3045 RMK AO2 T10331042
Loading
Personal Weather Stations






























Interactive Weather Map New forecast layout! Learn more

10-Day Weather Forecast

Advertisements
Track Severe Weather on mobile